createdAt,value
2018-03-24T00:01:45.375Z,92.93
2018-03-24T00:04:12.160Z,92.74
2018-03-24T00:06:43.518Z,92.79
2018-03-24T00:09:09.865Z,93.20
2018-03-24T00:11:36.429Z,92.76
2018-03-24T00:14:02.788Z,92.73
2018-03-24T00:16:29.403Z,92.72
2018-03-24T00:18:55.873Z,92.53
2018-03-24T00:21:22.258Z,92.19
2018-03-24T00:23:48.591Z,91.88
2018-03-24T00:26:14.974Z,92.20
2018-03-24T00:28:42.394Z,91.87
2018-03-24T00:31:08.768Z,91.98
2018-03-24T00:33:35.130Z,92.11
2018-03-24T00:36:01.459Z,91.92
2018-03-24T00:38:27.835Z,92.22
2018-03-24T00:40:54.218Z,91.34
2018-03-24T00:43:20.523Z,91.63
2018-03-24T00:45:47.264Z,91.66
2018-03-24T00:48:14.738Z,91.45
2018-03-24T00:50:41.210Z,91.40
2018-03-24T00:53:07.595Z,91.73
2018-03-24T00:55:33.970Z,91.13
2018-03-24T00:58:00.425Z,91.94
2018-03-24T01:00:26.807Z,91.71
2018-03-24T01:02:53.132Z,91.14
2018-03-24T01:05:19.431Z,91.07
2018-03-24T01:07:52.860Z,91.54
2018-03-24T01:10:19.235Z,91.95
2018-03-24T01:12:45.550Z,91.06
2018-03-24T01:15:11.881Z,92.14
2018-03-24T01:17:43.570Z,91.62
2018-03-24T01:20:09.915Z,90.93
2018-03-24T01:22:36.219Z,90.10
2018-03-24T01:25:02.643Z,90.38
2018-03-24T01:27:28.968Z,90.39
2018-03-24T01:29:55.260Z,89.99
2018-03-24T01:32:21.540Z,91.15
2018-03-24T01:34:47.851Z,91.36
2018-03-24T01:37:14.332Z,90.72
2018-03-24T01:39:40.716Z,90.26
2018-03-24T01:42:06.948Z,91.01
2018-03-24T01:44:33.259Z,91.39
2018-03-24T01:46:59.627Z,91.26
2018-03-24T01:49:25.897Z,90.69
2018-03-24T01:51:52.218Z,91.37
2018-03-24T01:54:18.479Z,90.96
2018-03-24T01:56:44.765Z,90.85
2018-03-24T01:59:11.047Z,91.28
2018-03-24T02:01:37.384Z,90.51
2018-03-24T02:04:03.734Z,91.13
2018-03-24T02:06:30.043Z,90.32
2018-03-24T02:08:58.564Z,89.19
2018-03-24T02:11:24.820Z,90.21
2018-03-24T02:13:51.086Z,89.92
2018-03-24T02:16:17.390Z,90.02
2018-03-24T02:18:45.815Z,89.78
2018-03-24T02:21:12.163Z,89.58
2018-03-24T02:23:38.533Z,90.29
2018-03-24T02:26:04.928Z,89.56
2018-03-24T02:28:32.397Z,89.55
2018-03-24T02:30:58.790Z,89.85
2018-03-24T02:33:25.196Z,89.74
2018-03-24T02:35:51.502Z,89.90
2018-03-24T02:38:19.866Z,90.50
2018-03-24T02:40:46.202Z,89.25
2018-03-24T02:43:12.502Z,89.90
2018-03-24T02:45:38.893Z,89.51
2018-03-24T02:48:06.284Z,89.69
2018-03-24T02:50:32.616Z,90.14
2018-03-24T02:52:58.989Z,89.79
2018-03-24T02:55:25.318Z,89.94
2018-03-24T02:57:52.847Z,89.65
2018-03-24T03:00:19.216Z,89.53
2018-03-24T03:02:45.539Z,89.73
2018-03-24T03:05:11.841Z,90.20
2018-03-24T03:07:40.326Z,89.01
2018-03-24T03:10:06.706Z,89.57
2018-03-24T03:12:33.024Z,88.81
2018-03-24T03:14:59.390Z,89.52
2018-03-24T03:17:25.797Z,89.26
2018-03-24T03:19:52.134Z,88.99
2018-03-24T03:22:18.566Z,89.83
2018-03-24T03:24:45.057Z,89.67
2018-03-24T03:27:11.493Z,90.06
2018-03-24T03:29:37.834Z,90.12
2018-03-24T03:32:10.383Z,89.51
2018-03-24T03:34:36.820Z,89.55
2018-03-24T03:37:03.262Z,89.30
2018-03-24T03:39:29.637Z,89.38
2018-03-24T03:41:56.272Z,88.91
2018-03-24T03:44:22.634Z,89.93
2018-03-24T03:46:48.984Z,89.09
2018-03-24T03:49:15.518Z,89.69
2018-03-24T03:51:41.869Z,89.43
2018-03-24T03:54:08.242Z,88.98
2018-03-24T03:56:34.644Z,89.65
2018-03-24T03:59:02.085Z,90.28
2018-03-24T04:01:28.432Z,89.65
2018-03-24T04:03:54.854Z,89.31
2018-03-24T04:06:21.221Z,87.95
2018-03-24T04:08:47.637Z,88.88
2018-03-24T04:11:14.275Z,90.03
2018-03-24T04:13:40.677Z,89.64
2018-03-24T04:16:07.095Z,89.03
2018-03-24T04:18:33.580Z,89.03
2018-03-24T04:20:59.955Z,88.78
2018-03-24T04:23:26.292Z,88.29
2018-03-24T04:25:52.712Z,89.43
2018-03-24T04:28:21.139Z,88.84
2018-03-24T04:30:47.579Z,88.78
2018-03-24T04:33:13.954Z,88.89
2018-03-24T04:35:40.404Z,88.41
2018-03-24T04:38:06.765Z,89.07
2018-03-24T04:40:33.132Z,89.77
2018-03-24T04:42:59.813Z,88.98
2018-03-24T04:45:26.316Z,88.77
2018-03-24T04:47:54.769Z,87.42
2018-03-24T04:50:21.181Z,88.27
2018-03-24T04:52:47.567Z,88.58
2018-03-24T04:55:14.018Z,88.21
2018-03-24T04:57:40.407Z,87.42
2018-03-24T05:00:06.755Z,87.16
2018-03-24T05:02:33.163Z,86.92
2018-03-24T05:04:59.517Z,86.90
2018-03-24T05:07:25.948Z,87.63
2018-03-24T05:09:52.366Z,87.46
2018-03-24T05:12:18.864Z,87.13
2018-03-24T05:14:45.505Z,87.39
2018-03-24T05:17:11.926Z,87.02
2018-03-24T05:19:38.260Z,86.53
2018-03-24T05:22:04.604Z,85.94
2018-03-24T05:24:30.988Z,86.36
2018-03-24T05:26:57.318Z,86.12
2018-03-24T05:29:23.713Z,85.76
2018-03-24T05:31:50.126Z,85.34
2018-03-24T05:34:16.692Z,83.83
2018-03-24T05:36:43.104Z,82.90
2018-03-24T05:39:09.649Z,83.13
2018-03-24T05:41:36.096Z,82.36
2018-03-24T05:44:02.513Z,82.69
2018-03-24T05:46:28.951Z,82.90
2018-03-24T05:48:55.379Z,83.32
2018-03-24T05:51:21.857Z,81.54
2018-03-24T05:53:55.421Z,81.49
2018-03-24T05:56:21.862Z,79.72
2018-03-24T05:58:48.333Z,80.56
2018-03-24T06:01:15.004Z,80.51
2018-03-24T06:03:41.543Z,78.52
2018-03-24T06:06:07.981Z,76.81
2018-03-24T06:08:34.645Z,78.34
2018-03-24T06:11:01.216Z,78.19
2018-03-24T06:13:27.595Z,78.86
2018-03-24T06:15:53.963Z,78.47
2018-03-24T06:18:20.542Z,79.37
2018-03-24T06:20:47.071Z,78.50
2018-03-24T06:23:13.581Z,77.82
2018-03-24T06:25:40.361Z,76.62
2018-03-24T06:28:07.011Z,75.85
2018-03-24T06:30:34.704Z,76.37
2018-03-24T06:33:01.265Z,74.93
2018-03-24T06:35:27.750Z,75.65
2018-03-24T06:37:55.417Z,75.68
2018-03-24T06:40:29.155Z,75.29
2018-03-24T06:42:55.752Z,73.30
2018-03-24T06:45:22.267Z,75.21
2018-03-24T06:47:48.840Z,75.10
2018-03-24T06:50:15.373Z,75.09
2018-03-24T06:52:41.828Z,76.49
2018-03-24T06:55:08.213Z,73.38
2018-03-24T06:57:34.815Z,76.03
2018-03-24T07:00:01.284Z,74.13
2018-03-24T07:02:27.796Z,72.75
2018-03-24T07:04:54.285Z,72.56
2018-03-24T07:07:20.654Z,72.36
2018-03-24T07:09:47.678Z,70.25
2018-03-24T07:12:16.124Z,72.67
2018-03-24T07:14:44.149Z,71.67
2018-03-24T07:17:12.433Z,71.71
2018-03-24T07:19:40.324Z,72.14
2018-03-24T07:22:07.237Z,71.56
2018-03-24T07:24:33.808Z,70.21
2018-03-24T07:27:00.812Z,68.58
2018-03-24T07:29:28.290Z,66.64
2018-03-24T07:31:54.762Z,67.54
2018-03-24T07:34:21.721Z,68.30
2018-03-24T07:36:49.547Z,65.23
2018-03-24T07:39:18.142Z,65.18
2018-03-24T07:41:44.761Z,63.84
2018-03-24T07:44:11.351Z,65.28
2018-03-24T07:46:38.203Z,61.20
2018-03-24T07:49:04.991Z,59.82
2018-03-24T07:51:31.531Z,60.21
2018-03-24T07:53:57.919Z,57.33
2018-03-24T07:56:24.382Z,57.81
2018-03-24T07:58:50.924Z,58.80
2018-03-24T08:01:17.381Z,60.30
2018-03-24T08:03:44.368Z,58.99
2018-03-24T08:06:10.907Z,58.49
2018-03-24T08:08:37.469Z,59.91
2018-03-24T08:11:03.953Z,61.74
2018-03-24T08:13:30.321Z,56.19
2018-03-24T08:15:56.750Z,58.62
2018-03-24T08:18:23.309Z,56.26
2018-03-24T08:20:49.685Z,56.90
2018-03-24T08:23:16.076Z,58.11
2018-03-24T08:25:42.700Z,55.79
2018-03-24T08:28:12.118Z,59.02
2018-03-24T08:30:39.191Z,58.15
2018-03-24T08:33:05.850Z,56.84
2018-03-24T08:35:32.233Z,57.06
2018-03-24T08:37:58.661Z,57.29
2018-03-24T08:40:25.541Z,55.79
2018-03-24T08:42:52.155Z,51.92
2018-03-24T08:45:18.701Z,48.10
2018-03-24T08:47:46.666Z,49.93
2018-03-24T08:50:13.068Z,51.95
2018-03-24T08:52:39.547Z,51.11
2018-03-24T08:55:05.970Z,51.58
2018-03-24T08:57:32.736Z,54.52
2018-03-24T08:59:59.215Z,54.57
2018-03-24T09:02:25.728Z,54.99
2018-03-24T09:04:52.172Z,56.15
2018-03-24T09:07:18.653Z,51.73
2018-03-24T09:09:45.168Z,56.15
2018-03-24T09:12:12.663Z,55.15
2018-03-24T09:14:40.624Z,54.51
2018-03-24T09:17:07.375Z,53.91
2018-03-24T09:19:33.849Z,54.84
2018-03-24T09:22:00.264Z,52.91
2018-03-24T09:24:26.857Z,50.79
2018-03-24T09:26:53.628Z,48.07
2018-03-24T09:29:20.284Z,49.27
2018-03-24T09:31:46.830Z,51.44
2018-03-24T09:34:13.664Z,50.92
2018-03-24T09:36:40.153Z,51.00
2018-03-24T09:39:08.665Z,50.29
2018-03-24T09:41:35.323Z,48.64
2018-03-24T09:44:01.753Z,52.52
2018-03-24T09:46:28.320Z,50.34
2018-03-24T09:48:54.723Z,48.76
2018-03-24T09:51:21.225Z,51.60
2018-03-24T09:53:47.696Z,51.20
2018-03-24T09:56:14.155Z,49.35
2018-03-24T09:58:40.713Z,47.54
2018-03-24T10:01:07.255Z,47.87
2018-03-24T10:03:33.763Z,50.50
2018-03-24T10:06:00.332Z,52.89
2018-03-24T10:08:26.969Z,50.33
2018-03-24T10:10:53.442Z,46.14
2018-03-24T10:13:19.808Z,46.20
2018-03-24T10:15:46.273Z,50.22
2018-03-24T10:18:13.019Z,48.15
2018-03-24T10:24:15.153Z,44.16
2018-03-24T10:26:41.673Z,48.01
2018-03-24T10:29:08.164Z,51.55
2018-03-24T10:31:34.656Z,51.86
2018-03-24T10:34:01.166Z,52.78
2018-03-24T10:36:27.714Z,49.85
2018-03-24T10:38:54.292Z,48.33
2018-03-24T10:41:21.388Z,51.50
2018-03-24T10:43:47.834Z,52.96
2018-03-24T10:46:14.311Z,51.44
2018-03-24T10:48:40.890Z,52.47
2018-03-24T10:51:08.267Z,49.91
2018-03-24T10:53:34.948Z,48.90
2018-03-24T10:56:01.436Z,48.84
2018-03-24T10:58:28.090Z,47.41
2018-03-24T11:01:00.616Z,46.27
2018-03-24T11:03:27.281Z,47.69
2018-03-24T11:05:53.790Z,48.99
2018-03-24T11:08:20.488Z,46.65
2018-03-24T11:10:47.020Z,45.54
2018-03-24T11:13:13.526Z,46.75
2018-03-24T11:15:40.470Z,48.88
2018-03-24T11:18:07.143Z,48.07
2018-03-24T11:20:33.973Z,53.30
2018-03-24T11:23:00.517Z,52.04
2018-03-24T11:25:26.934Z,53.28
2018-03-24T11:27:53.720Z,52.01
2018-03-24T11:30:20.446Z,49.80
2018-03-24T11:32:48.017Z,48.99
2018-03-24T11:35:14.537Z,49.18
2018-03-24T11:37:41.682Z,48.77
2018-03-24T11:40:08.383Z,48.24
2018-03-24T11:42:35.199Z,47.94
2018-03-24T11:45:01.589Z,46.02
2018-03-24T11:47:28.204Z,50.79
2018-03-24T11:49:54.960Z,48.84
2018-03-24T11:52:21.495Z,47.39
2018-03-24T11:54:48.089Z,45.80
2018-03-24T11:57:14.716Z,48.61
2018-03-24T11:59:41.544Z,50.80
2018-03-24T12:02:07.981Z,49.64
2018-03-24T12:04:34.870Z,45.85
2018-03-24T12:07:01.403Z,48.42
2018-03-24T12:09:28.040Z,49.76
2018-03-24T12:11:54.764Z,46.80
2018-03-24T12:14:21.181Z,46.16
2018-03-24T12:16:47.630Z,44.47
2018-03-24T12:19:14.329Z,48.62
2018-03-24T12:21:42.008Z,49.46
2018-03-24T12:24:08.843Z,50.71
2018-03-24T12:26:35.369Z,49.25
2018-03-24T12:29:02.336Z,48.21
2018-03-24T12:31:28.865Z,45.91
2018-03-24T12:33:55.499Z,49.72
2018-03-24T12:36:22.124Z,51.61
2018-03-24T12:38:48.832Z,53.61
2018-03-24T12:41:15.714Z,53.54
2018-03-24T12:43:42.904Z,50.88
2018-03-24T12:46:11.753Z,53.71
2018-03-24T12:48:39.041Z,54.73
2018-03-24T12:51:05.784Z,54.87
2018-03-24T12:53:32.434Z,53.80
2018-03-24T12:55:59.305Z,52.61
2018-03-24T12:58:25.809Z,54.48
2018-03-24T13:00:52.601Z,55.14
2018-03-24T13:03:19.331Z,54.64
2018-03-24T13:05:46.014Z,54.25
2018-03-24T13:08:13.060Z,57.94
2018-03-24T13:10:39.593Z,58.19
2018-03-24T13:13:06.113Z,60.10
2018-03-24T13:15:32.744Z,57.35
2018-03-24T13:18:00.008Z,56.86
2018-03-24T13:20:26.843Z,55.50
2018-03-24T13:22:53.403Z,57.96
2018-03-24T13:25:19.902Z,57.52
2018-03-24T13:27:46.598Z,55.55
2018-03-24T13:30:13.256Z,52.78
2018-03-24T13:32:40.590Z,54.57
2018-03-24T13:35:07.194Z,59.42
2018-03-24T13:37:34.100Z,56.06
2018-03-24T13:40:01.366Z,56.49
2018-03-24T13:42:29.031Z,56.13
2018-03-24T13:44:55.726Z,54.61
2018-03-24T13:47:22.384Z,54.33
2018-03-24T13:49:49.184Z,56.42
2018-03-24T13:52:15.723Z,58.19
2018-03-24T13:54:42.563Z,57.86
2018-03-24T13:57:09.127Z,58.79
2018-03-24T13:59:35.740Z,58.49
2018-03-24T14:02:02.478Z,56.63
2018-03-24T14:04:29.215Z,55.59
2018-03-24T14:06:55.951Z,54.45
2018-03-24T14:09:23.560Z,55.19
2018-03-24T14:11:50.358Z,59.34
2018-03-24T14:14:17.064Z,56.92
2018-03-24T14:16:43.642Z,58.77
2018-03-24T14:19:10.384Z,61.36
2018-03-24T14:21:37.463Z,61.62
2018-03-24T14:24:04.410Z,59.04
2018-03-24T14:26:31.536Z,59.38
2018-03-24T14:28:58.316Z,61.21
2018-03-24T14:31:24.910Z,61.09
2018-03-24T14:33:51.600Z,61.57
2018-03-24T14:36:19.031Z,62.19
2018-03-24T14:38:45.619Z,62.99
2018-03-24T14:41:12.181Z,62.74
2018-03-24T14:43:38.946Z,64.13
2018-03-24T14:46:05.518Z,63.89
2018-03-24T14:48:32.295Z,64.23
2018-03-24T14:50:59.104Z,66.38
2018-03-24T14:53:25.888Z,65.45
2018-03-24T14:55:52.390Z,66.73
2018-03-24T14:58:18.913Z,66.04
2018-03-24T15:00:45.450Z,64.95
2018-03-24T15:03:12.150Z,64.12
2018-03-24T15:05:39.121Z,65.46
2018-03-24T15:08:05.711Z,65.83
2018-03-24T15:10:32.598Z,68.16
2018-03-24T15:13:00.364Z,69.09
2018-03-24T15:15:28.103Z,71.47
2018-03-24T15:17:55.412Z,72.33
2018-03-24T15:20:22.148Z,73.73
2018-03-24T15:22:48.766Z,74.11
2018-03-24T15:25:16.016Z,73.17
2018-03-24T15:27:43.823Z,74.02
2018-03-24T15:30:22.667Z,73.17
2018-03-24T15:32:52.657Z,73.66
2018-03-24T15:35:32.928Z,72.59
2018-03-24T15:37:59.825Z,72.61
2018-03-24T15:40:27.734Z,74.88
2018-03-24T15:42:54.544Z,75.65
2018-03-24T15:45:21.540Z,76.71
2018-03-24T15:47:48.735Z,77.00
2018-03-24T15:50:15.540Z,76.75
2018-03-24T15:52:42.508Z,77.46
2018-03-24T15:55:09.384Z,78.04
2018-03-24T15:57:36.039Z,78.17
2018-03-24T16:00:03.242Z,78.29
2018-03-24T16:02:29.802Z,78.36
2018-03-24T16:04:56.897Z,77.20
2018-03-24T16:07:23.483Z,77.46
2018-03-24T16:09:50.302Z,77.75
2018-03-24T16:12:16.873Z,78.49
2018-03-24T16:14:43.520Z,79.33
2018-03-24T16:17:10.227Z,78.72
2018-03-24T16:19:37.038Z,78.81
2018-03-24T16:22:03.862Z,79.00
2018-03-24T16:24:30.871Z,78.94
2018-03-24T16:26:57.875Z,80.64
2018-03-24T16:29:25.569Z,81.22
2018-03-24T16:31:52.609Z,80.77
2018-03-24T16:34:19.586Z,80.74
2018-03-24T16:36:46.588Z,81.29
2018-03-24T16:39:14.492Z,81.55
2018-03-24T16:41:41.471Z,82.13
2018-03-24T16:44:08.273Z,83.15
2018-03-24T16:46:35.141Z,82.56
2018-03-24T16:49:03.210Z,82.83
2018-03-24T16:51:31.093Z,82.74
2018-03-24T16:53:58.091Z,83.91
2018-03-24T16:56:26.544Z,83.44
2018-03-24T16:58:54.747Z,84.07
2018-03-24T17:01:21.735Z,84.21
2018-03-24T17:03:49.916Z,84.15
2018-03-24T17:06:16.641Z,84.57
2018-03-24T17:08:43.561Z,85.34
2018-03-24T17:11:10.360Z,85.08
2018-03-24T17:13:37.705Z,85.14
2018-03-24T17:16:04.903Z,84.87
2018-03-24T17:18:33.327Z,84.88
2018-03-24T17:21:00.324Z,84.68
2018-03-24T17:23:27.201Z,85.19
2018-03-24T17:25:54.133Z,85.52
2018-03-24T17:28:20.922Z,86.09
2018-03-24T17:30:48.751Z,85.88
2018-03-24T17:33:15.809Z,86.06
2018-03-24T17:35:43.303Z,86.51
2018-03-24T17:38:10.367Z,85.65
2018-03-24T17:40:37.425Z,85.74
2018-03-24T17:43:04.509Z,86.22
2018-03-24T17:45:31.581Z,86.17
2018-03-24T17:47:58.411Z,87.10
2018-03-24T17:50:27.434Z,86.98
2018-03-24T17:52:54.321Z,87.47
2018-03-24T17:55:21.256Z,87.93
2018-03-24T17:57:48.274Z,87.53
2018-03-24T18:00:15.393Z,87.33
2018-03-24T18:02:42.823Z,87.94
2018-03-24T18:05:09.714Z,87.50
2018-03-24T18:07:36.945Z,87.71
2018-03-24T18:10:03.985Z,88.29
2018-03-24T18:12:38.878Z,88.78
2018-03-24T18:15:06.258Z,88.55
2018-03-24T18:17:33.428Z,88.95
2018-03-24T18:20:00.840Z,88.81
2018-03-24T18:22:28.001Z,88.81
2018-03-24T18:24:54.927Z,88.97
2018-03-24T18:27:22.396Z,88.51
2018-03-24T18:29:49.760Z,88.06
2018-03-24T18:32:17.163Z,88.73
2018-03-24T18:34:44.616Z,89.10
2018-03-24T18:37:12.622Z,88.75
2018-03-24T18:39:41.789Z,88.71
2018-03-24T18:42:08.991Z,88.86
2018-03-24T18:44:36.348Z,89.47
2018-03-24T18:47:04.396Z,89.27
2018-03-24T18:49:31.815Z,89.15
2018-03-24T18:51:58.867Z,89.78
2018-03-24T18:54:26.831Z,89.78
2018-03-24T18:56:57.447Z,89.81
2018-03-24T18:59:24.813Z,89.50
2018-03-24T19:01:51.772Z,89.44
2018-03-24T19:04:18.629Z,89.82
2018-03-24T19:06:46.066Z,90.23
2018-03-24T19:09:13.230Z,89.98
2018-03-24T19:11:40.270Z,89.44
2018-03-24T19:14:07.334Z,89.55
2018-03-24T19:16:34.648Z,89.72
2018-03-24T19:19:02.326Z,89.34
2018-03-24T19:21:29.448Z,89.93
2018-03-24T19:23:56.454Z,89.34
2018-03-24T19:26:23.376Z,89.36
2018-03-24T19:28:50.775Z,89.81
2018-03-24T19:31:17.869Z,90.15
2018-03-24T19:33:44.919Z,90.12
2018-03-24T19:36:12.364Z,90.37
2018-03-24T19:38:39.875Z,90.92
2018-03-24T19:41:07.528Z,90.22
2018-03-24T19:43:34.813Z,90.64
2018-03-24T19:46:02.119Z,90.96
2018-03-24T19:48:29.054Z,90.71
2018-03-24T19:50:56.405Z,90.42
2018-03-24T19:53:23.532Z,90.20
2018-03-24T19:55:50.612Z,90.03
2018-03-24T19:58:18.144Z,89.33
2018-03-24T20:00:45.324Z,89.46
2018-03-24T20:03:12.293Z,89.44
2018-03-24T20:05:39.197Z,89.48
2018-03-24T20:08:06.503Z,90.89
2018-03-24T20:10:33.643Z,89.86
2018-03-24T20:13:00.778Z,89.71
2018-03-24T20:15:27.723Z,89.54
2018-03-24T20:17:54.648Z,89.50
2018-03-24T20:20:21.703Z,90.08
2018-03-24T20:22:48.414Z,89.62
2018-03-24T20:25:15.345Z,89.56
2018-03-24T20:27:42.257Z,90.05
2018-03-24T20:30:09.285Z,88.09
2018-03-24T20:32:36.214Z,87.63
2018-03-24T20:35:03.243Z,88.82
2018-03-24T20:37:30.034Z,89.59
2018-03-24T20:39:56.968Z,90.12
2018-03-24T20:42:24.159Z,90.47
2018-03-24T20:44:51.105Z,90.37
2018-03-24T20:47:18.454Z,90.42
2018-03-24T20:49:45.517Z,90.77
2018-03-24T20:52:12.237Z,90.73
2018-03-24T20:54:39.084Z,90.98
2018-03-24T20:57:06.256Z,91.24
2018-03-24T20:59:33.021Z,90.36
2018-03-24T21:01:59.859Z,90.67
2018-03-24T21:04:26.742Z,91.17
2018-03-24T21:06:53.282Z,91.05
2018-03-24T21:09:20.171Z,91.24
2018-03-24T21:11:46.916Z,90.70
2018-03-24T21:14:13.649Z,90.16
2018-03-24T21:16:40.321Z,90.62
2018-03-24T21:19:07.350Z,92.13
2018-03-24T21:21:34.293Z,91.61
2018-03-24T21:24:01.486Z,90.51
2018-03-24T21:26:28.638Z,90.07
2018-03-24T21:28:55.224Z,89.46
2018-03-24T21:31:22.241Z,89.90
2018-03-24T21:33:48.892Z,90.80
2018-03-24T21:36:15.475Z,91.46
2018-03-24T21:38:42.423Z,92.06
2018-03-24T21:41:09.021Z,90.88
2018-03-24T21:43:35.955Z,90.26
2018-03-24T21:46:02.896Z,90.76
2018-03-24T21:48:29.386Z,91.05
2018-03-24T21:50:56.084Z,90.83
2018-03-24T21:53:22.633Z,91.47
2018-03-24T21:55:49.769Z,91.38
2018-03-24T21:58:16.201Z,91.24
2018-03-24T22:00:42.776Z,91.92
2018-03-24T22:03:09.335Z,91.52
2018-03-24T22:05:35.866Z,91.09
2018-03-24T22:08:02.337Z,90.94
2018-03-24T22:10:29.049Z,91.22
2018-03-24T22:12:56.099Z,90.85
2018-03-24T22:15:23.032Z,90.91
2018-03-24T22:17:49.686Z,91.53
2018-03-24T22:20:17.366Z,91.37
2018-03-24T22:22:44.272Z,90.92
2018-03-24T22:25:11.493Z,91.06
2018-03-24T22:27:39.190Z,90.81
2018-03-24T22:30:06.156Z,91.38
2018-03-24T22:32:32.564Z,91.22
2018-03-24T22:34:59.125Z,89.83
2018-03-24T22:37:25.714Z,89.55
2018-03-24T22:39:52.632Z,91.28
2018-03-24T22:42:19.493Z,91.57
2018-03-24T22:44:46.028Z,91.58
2018-03-24T22:47:12.456Z,91.26
2018-03-24T22:49:39.027Z,91.01
2018-03-24T22:52:05.511Z,91.09
2018-03-24T22:54:31.929Z,91.67
2018-03-24T22:56:58.263Z,92.14
2018-03-24T22:59:24.720Z,91.68
2018-03-24T23:01:51.279Z,91.29
2018-03-24T23:04:17.700Z,92.05
2018-03-24T23:06:44.062Z,92.44
2018-03-24T23:09:10.639Z,92.87
2018-03-24T23:11:36.994Z,92.96
2018-03-24T23:14:03.497Z,92.94
2018-03-24T23:16:29.933Z,93.54
2018-03-24T23:18:56.281Z,93.09
2018-03-24T23:21:22.713Z,92.61
2018-03-24T23:23:49.105Z,93.13
2018-03-24T23:26:15.523Z,93.25
2018-03-24T23:28:41.855Z,92.36
2018-03-24T23:31:08.867Z,91.90
2018-03-24T23:33:35.199Z,92.21
2018-03-24T23:36:01.556Z,92.33
2018-03-24T23:38:27.899Z,92.41
2018-03-24T23:40:54.598Z,91.76
2018-03-24T23:43:20.940Z,91.45
2018-03-24T23:45:47.325Z,91.29
2018-03-24T23:48:13.644Z,91.31
2018-03-24T23:50:40.173Z,92.12
2018-03-24T23:53:06.559Z,92.59
2018-03-24T23:55:32.911Z,92.55
2018-03-24T23:57:59.251Z,92.65
